createdAt,value
2022-10-07T03:55:06.341Z,29.50
2022-10-07T03:58:33.642Z,27.40
2022-10-07T04:02:01.342Z,31.10
2022-10-07T04:05:29.160Z,24.30
2022-10-07T04:08:56.414Z,27.20
2022-10-07T04:12:23.073Z,33.40
2022-10-07T04:15:50.359Z,38.90
2022-10-07T04:19:17.444Z,42.00
2022-10-07T04:22:44.295Z,44.10
2022-10-07T04:26:13.299Z,51.00
2022-10-07T04:29:43.186Z,57.60
2022-10-07T04:33:10.925Z,56.40
2022-10-07T04:36:38.107Z,59.70
2022-10-07T04:40:09.800Z,54.60
2022-10-07T04:43:38.134Z,62.50
2022-10-07T04:47:07.788Z,61.60
2022-10-07T04:50:38.791Z,56.00
2022-10-07T04:54:06.832Z,61.10
2022-10-07T04:57:39.147Z,58.10
2022-10-07T05:01:11.493Z,56.80
2022-10-07T05:04:39.771Z,59.50
2022-10-07T05:08:07.578Z,63.20
2022-10-07T05:11:35.184Z,55.10
2022-10-07T05:15:09.158Z,63.60
2022-10-07T05:18:39.575Z,56.00
2022-10-07T05:22:09.304Z,69.60
2022-10-07T05:25:36.450Z,65.20
2022-10-07T05:29:03.988Z,62.70
2022-10-07T05:32:36.878Z,56.10
2022-10-07T05:36:04.719Z,67.10
2022-10-07T05:39:33.608Z,53.90
2022-10-07T05:43:10.845Z,63.10
2022-10-07T05:46:38.108Z,70.10
2022-10-07T05:50:05.857Z,65.80
2022-10-07T05:53:33.795Z,71.70
2022-10-07T05:57:03.132Z,52.70
2022-10-07T06:00:30.104Z,49.00
2022-10-07T06:03:58.212Z,54.60
2022-10-07T06:07:29.425Z,49.10
2022-10-07T06:11:32.248Z,51.60
2022-10-07T06:15:00.505Z,45.90
2022-10-07T06:18:27.733Z,42.00
2022-10-07T06:21:54.602Z,47.30
2022-10-07T06:25:21.379Z,52.50
2022-10-07T06:28:49.035Z,78.70
2022-10-07T06:32:16.268Z,110.00
2022-10-07T06:35:43.703Z,135.70
2022-10-07T06:39:11.802Z,80.10
2022-10-07T06:49:57.228Z,86.80
2022-10-07T06:53:23.988Z,54.40
2022-10-07T06:56:50.849Z,114.90
2022-10-07T07:00:18.779Z,38.30
2022-10-07T07:03:46.146Z,25.70
2022-10-07T07:07:13.593Z,27.70
2022-10-07T07:10:42.692Z,26.70
2022-10-07T07:14:11.498Z,37.10
2022-10-07T07:17:39.221Z,28.30
2022-10-07T07:21:07.808Z,23.40
2022-10-07T07:24:35.353Z,30.50
2022-10-07T07:28:03.706Z,24.60
2022-10-07T07:31:34.129Z,27.90
2022-10-07T07:35:02.259Z,30.00
2022-10-07T07:38:29.809Z,23.60
2022-10-07T07:41:57.773Z,21.70
2022-10-07T07:45:25.514Z,23.90
2022-10-07T07:48:53.720Z,23.60
2022-10-07T07:52:20.997Z,19.10
2022-10-07T07:55:56.991Z,26.40
2022-10-07T07:59:25.322Z,17.20
2022-10-07T08:02:53.911Z,9.60
2022-10-07T08:06:22.917Z,13.30
2022-10-07T08:09:49.867Z,18.90
2022-10-07T08:13:16.702Z,11.00
2022-10-07T08:16:45.089Z,14.80
2022-10-07T08:20:14.632Z,15.30
2022-10-07T08:23:42.008Z,11.10
2022-10-07T08:27:09.032Z,14.60
2022-10-07T08:30:36.050Z,12.20
2022-10-07T08:34:06.526Z,8.30
2022-10-07T08:37:33.450Z,20.00
2022-10-07T08:41:11.274Z,11.40
2022-10-07T08:44:41.916Z,11.30
2022-10-07T08:48:17.069Z,12.20
2022-10-07T08:51:48.954Z,8.30
2022-10-07T08:55:25.299Z,10.50
2022-10-07T08:59:04.669Z,9.30
2022-10-07T09:02:40.098Z,11.20
2022-10-07T09:06:14.932Z,9.20
2022-10-07T09:09:45.623Z,8.40
2022-10-07T09:13:17.167Z,7.10
2022-10-07T09:17:01.754Z,9.30
2022-10-07T09:20:35.199Z,9.20
2022-10-07T09:24:15.292Z,10.80
2022-10-07T09:27:42.655Z,6.80
2022-10-07T09:31:13.683Z,6.40
2022-10-07T09:34:41.352Z,9.50
2022-10-07T09:38:09.501Z,14.10
2022-10-07T09:41:38.998Z,15.20
2022-10-07T09:45:20.931Z,9.50
2022-10-07T09:48:54.449Z,8.70
2022-10-07T09:52:25.070Z,7.80
2022-10-07T09:55:53.352Z,5.20
2022-10-07T09:59:25.419Z,11.00
2022-10-07T10:02:55.694Z,5.80
2022-10-07T10:06:24.431Z,7.40
2022-10-07T10:09:54.154Z,8.40
2022-10-07T10:13:30.952Z,5.70
2022-10-07T10:16:57.800Z,9.60
2022-10-07T10:20:36.043Z,7.30
2022-10-07T10:24:06.195Z,5.60
2022-10-07T10:27:38.952Z,3.10
2022-10-07T10:31:19.116Z,7.60
2022-10-07T10:34:56.009Z,4.10
2022-10-07T10:38:34.073Z,4.90
2022-10-07T10:42:06.387Z,5.50
2022-10-07T10:45:41.913Z,7.50
2022-10-07T10:49:20.082Z,4.00
2022-10-07T10:52:58.993Z,5.80
2022-10-07T10:56:35.534Z,5.40
2022-10-07T11:00:09.303Z,6.20
2022-10-07T11:04:01.705Z,3.60
2022-10-07T11:07:34.423Z,6.20
2022-10-07T11:11:06.533Z,4.80
2022-10-07T11:14:47.375Z,18.10
2022-10-07T11:18:22.006Z,3.20
2022-10-07T11:21:51.538Z,2.70
2022-10-07T11:25:28.790Z,6.80
2022-10-07T11:29:13.976Z,10.40
2022-10-07T11:32:48.581Z,5.90
2022-10-07T11:36:21.335Z,16.20
2022-10-07T11:39:48.740Z,4.20
2022-10-07T11:43:19.988Z,9.50
2022-10-07T11:46:48.727Z,6.80
2022-10-07T11:50:20.738Z,4.80
2022-10-07T11:53:47.743Z,4.50
2022-10-07T11:57:23.649Z,5.20
2022-10-07T12:00:50.860Z,10.00
2022-10-07T12:04:38.314Z,5.90
2022-10-07T12:08:27.437Z,6.00
2022-10-07T12:11:59.017Z,7.90
2022-10-07T12:15:39.081Z,6.50
2022-10-07T12:19:24.012Z,4.20
2022-10-07T12:23:39.859Z,4.70
2022-10-07T12:27:18.374Z,12.50
2022-10-07T12:30:53.334Z,8.60
2022-10-07T12:34:35.529Z,6.40
2022-10-07T12:38:14.231Z,8.60
2022-10-07T12:41:47.532Z,6.10
2022-10-07T12:45:19.510Z,8.90
2022-10-07T12:48:51.481Z,4.80
2022-10-07T12:52:23.841Z,5.10
2022-10-07T12:55:54.303Z,9.00
2022-10-07T12:59:50.987Z,5.00
2022-10-07T13:03:55.325Z,11.70
2022-10-07T13:07:52.775Z,4.30
2022-10-07T13:11:48.008Z,7.80
2022-10-07T13:15:27.949Z,65.80
2022-10-07T13:19:01.525Z,3.90
2022-10-07T13:22:30.901Z,6.60
2022-10-07T13:26:00.315Z,4.30
2022-10-07T13:32:53.709Z,4.20
2022-10-07T13:36:24.190Z,6.70
2022-10-07T13:39:50.828Z,4.60
2022-10-07T13:43:17.633Z,6.60
2022-10-07T13:46:55.122Z,26.50
2022-10-07T13:50:26.331Z,14.80
2022-10-07T13:53:58.222Z,5.10
2022-10-07T13:57:26.070Z,6.40
2022-10-07T14:00:53.684Z,6.90
2022-10-07T14:04:26.310Z,3.80
2022-10-07T14:07:56.563Z,3.30
2022-10-07T14:11:24.654Z,8.20
2022-10-07T14:14:54.451Z,3.60
2022-10-07T14:18:21.102Z,6.50
2022-10-07T14:21:47.841Z,7.70
2022-10-07T14:25:21.457Z,9.50
2022-10-07T14:28:48.246Z,12.00
2022-10-07T14:32:39.390Z,11.80
2022-10-07T14:36:16.128Z,7.60
2022-10-07T14:39:44.786Z,9.40
2022-10-07T14:43:12.027Z,8.10
2022-10-07T14:46:39.740Z,12.90
2022-10-07T14:50:07.732Z,8.60
2022-10-07T14:53:35.588Z,9.30
2022-10-07T14:57:02.356Z,5.60
2022-10-07T15:00:35.991Z,5.00
2022-10-07T15:04:07.186Z,3.10
2022-10-07T15:07:34.032Z,6.40
2022-10-07T15:11:00.706Z,7.10
2022-10-07T15:14:27.305Z,6.30
2022-10-07T15:17:54.196Z,2.90
2022-10-07T15:21:21.206Z,4.10
2022-10-07T15:24:48.045Z,5.10
2022-10-07T15:28:17.677Z,4.50
2022-10-07T15:31:45.141Z,5.80
2022-10-07T15:35:12.805Z,12.90
2022-10-07T15:38:40.651Z,5.90
2022-10-07T15:42:09.914Z,7.70
2022-10-07T15:45:36.407Z,6.30
2022-10-07T15:49:03.786Z,11.30
2022-10-07T15:52:30.463Z,9.30
2022-10-07T15:55:58.631Z,10.60
2022-10-07T15:59:25.419Z,5.80
2022-10-07T16:09:49.068Z,6.50
2022-10-07T16:13:16.045Z,7.50
2022-10-07T16:16:43.124Z,7.90
2022-10-07T16:20:11.645Z,10.10
2022-10-07T16:23:40.312Z,10.40
2022-10-07T16:27:06.913Z,20.20
2022-10-07T16:30:43.325Z,19.90
2022-10-07T16:34:11.602Z,13.70
2022-10-07T16:37:38.371Z,19.10
2022-10-07T16:41:04.872Z,17.40
2022-10-07T16:44:31.684Z,16.80
2022-10-07T16:47:58.846Z,16.40
2022-10-07T16:51:27.634Z,22.50
2022-10-07T16:54:54.283Z,20.20
2022-10-07T16:58:20.871Z,18.00
2022-10-07T17:01:48.208Z,20.20
2022-10-07T17:05:15.061Z,18.10
2022-10-07T17:08:46.181Z,15.00
2022-10-07T17:12:16.306Z,99.60
2022-10-07T17:15:43.086Z,30.70
2022-10-07T17:19:12.055Z,28.50
2022-10-07T17:22:38.699Z,29.40
2022-10-07T17:26:08.717Z,29.40
2022-10-07T17:29:36.120Z,45.10
2022-10-07T17:33:03.444Z,55.30
2022-10-07T17:36:31.413Z,32.60
2022-10-07T17:39:58.073Z,30.60
2022-10-07T17:43:25.307Z,28.10
2022-10-07T17:46:52.325Z,25.50
2022-10-07T17:50:19.288Z,24.00
2022-10-07T17:53:46.749Z,22.50
2022-10-07T17:57:13.480Z,23.10
2022-10-07T18:00:40.094Z,22.40
2022-10-07T18:04:08.702Z,34.70
2022-10-07T18:07:36.723Z,30.90
2022-10-07T18:11:04.573Z,47.40
2022-10-07T18:14:53.432Z,37.60
2022-10-07T18:18:22.174Z,51.70
2022-10-07T18:21:48.955Z,47.40
2022-10-07T18:25:15.765Z,46.30
2022-10-07T18:28:43.120Z,37.50
2022-10-07T18:32:11.205Z,39.50
2022-10-07T18:35:37.957Z,31.80
2022-10-07T18:39:08.090Z,34.40
2022-10-07T18:42:36.637Z,36.10
2022-10-07T18:46:08.832Z,48.40
2022-10-07T18:49:36.353Z,77.50
2022-10-07T18:53:03.479Z,132.10
2022-10-07T18:56:30.234Z,92.70
2022-10-07T18:59:57.381Z,87.10
2022-10-07T19:03:24.252Z,89.20
2022-10-07T19:06:51.066Z,76.70
2022-10-07T19:10:17.736Z,73.80
2022-10-07T19:13:52.032Z,89.20
2022-10-07T19:17:19.128Z,93.50
2022-10-07T19:20:54.939Z,107.10
2022-10-07T19:24:42.479Z,107.80
2022-10-07T19:28:09.482Z,101.50
2022-10-07T19:31:40.197Z,82.70
2022-10-07T19:35:09.020Z,110.20
2022-10-07T19:38:36.018Z,85.50
2022-10-07T19:42:03.298Z,62.20
2022-10-07T19:45:30.283Z,71.10
2022-10-07T19:48:59.626Z,64.30
2022-10-07T19:52:27.553Z,62.50
2022-10-07T19:55:54.349Z,60.60
2022-10-07T19:59:21.041Z,61.50
2022-10-07T20:02:49.316Z,56.90
2022-10-07T20:06:17.220Z,61.60
2022-10-07T20:19:14.918Z,65.70
2022-10-07T20:22:44.727Z,60.80
2022-10-07T20:26:17.925Z,56.30
2022-10-07T20:29:58.204Z,50.10
2022-10-07T20:33:25.052Z,59.40
2022-10-07T20:36:51.906Z,63.30
2022-10-07T20:40:36.357Z,63.90
2022-10-07T20:44:03.115Z,55.90
2022-10-07T20:47:32.762Z,55.50
2022-10-07T20:51:04.671Z,59.80
2022-10-07T20:54:33.297Z,58.10
2022-10-07T20:58:00.531Z,50.40
2022-10-07T21:01:27.519Z,52.80
2022-10-07T21:04:54.214Z,49.50
2022-10-07T21:08:21.124Z,51.30
2022-10-07T21:11:48.880Z,52.50
2022-10-07T21:15:15.967Z,61.60
2022-10-07T21:18:43.148Z,62.60
2022-10-07T21:22:10.506Z,64.00
2022-10-07T21:25:37.226Z,58.00
2022-10-07T21:29:07.108Z,57.80
2022-10-07T21:32:34.317Z,61.50
2022-10-07T21:36:04.173Z,66.40
2022-10-07T21:39:35.565Z,66.50
2022-10-07T21:43:03.299Z,67.70
2022-10-07T21:46:32.381Z,67.90
2022-10-07T21:49:59.630Z,68.60
2022-10-07T21:53:27.168Z,83.20
2022-10-07T21:56:53.852Z,86.20
2022-10-07T22:00:21.778Z,93.40
2022-10-07T22:03:53.784Z,115.90
2022-10-07T22:07:39.104Z,105.50
2022-10-07T22:11:07.794Z,133.90
2022-10-07T22:14:34.880Z,83.90
2022-10-07T22:18:02.894Z,72.10
2022-10-07T22:21:33.305Z,77.90
2022-10-07T22:25:00.162Z,70.50
2022-10-07T22:28:27.458Z,76.90
2022-10-07T22:31:54.411Z,73.50
2022-10-07T22:35:33.795Z,71.30
2022-10-07T22:48:43.221Z,69.50
